Time;durP1;ratioP1;P1;durP2;ratioP2;P2;SDS_P1;SDS_P2;PMS_P1;PMS_P2;Temp;Humidity;BMP_temperature;BMP_pressure;BME280_temperature;BME280_humidity;BME280_pressure;Samples;Min_cycle;Max_cycle;Signal;HPM_P1;HPM_P2
2024/02/01 00:03:51;;;;;;;1.50;1.17;;;;;;;6.18;58.60;100994.63;10310793;28;20086;-81
2024/02/01 00:08:53;;;;;;;2.28;1.20;;;;;;;6.22;58.50;100985.84;10294824;28;20051;-81
2024/02/01 00:13:55;;;;;;;1.98;1.40;;;;;;;6.28;58.18;100985.72;10312066;28;20050;-80
2024/02/01 00:18:57;;;;;;;5.47;1.83;;;;;;;6.30;58.32;100956.22;10313594;28;20046;-81
2024/02/01 00:24:00;;;;;;;1.95;1.40;;;;;;;6.39;58.48;100957.72;10311926;28;20064;-81
2024/02/01 00:29:02;;;;;;;1.95;1.25;;;;;;;6.38;58.58;100939.56;10311273;28;20057;-81
2024/02/01 00:34:04;;;;;;;1.67;1.17;;;;;;;6.44;58.75;100945.47;10321323;28;20047;-81
2024/02/01 00:39:06;;;;;;;2.40;1.42;;;;;;;6.48;58.59;100941.88;10309940;28;20046;-81
2024/02/01 00:44:08;;;;;;;3.20;1.60;;;;;;;6.47;58.92;100934.97;10310046;28;20054;-81
2024/02/01 00:49:10;;;;;;;2.80;1.70;;;;;;;6.50;59.18;100934.03;10294431;28;20141;-81
2024/02/01 00:54:13;;;;;;;3.42;2.03;;;;;;;6.50;59.31;100931.44;10308371;28;20062;-81
2024/02/01 00:59:15;;;;;;;3.03;1.42;;;;;;;6.64;58.99;100916.31;10348579;28;20517;-81
2024/02/01 01:04:17;;;;;;;2.97;1.67;;;;;;;6.50;59.47;100918.44;10329190;28;20105;-81
2024/02/01 01:09:44;;;;;;;2.88;1.35;;;;;;;6.59;59.54;100907.81;10313234;28;20082;-80
2024/02/01 01:14:47;;;;;;;3.40;1.58;;;;;;;6.69;59.35;100902.31;10374357;28;20093;-81
2024/02/01 01:19:50;;;;;;;2.83;1.50;;;;;;;6.75;59.36;100901.28;10349399;28;20145;-79
2024/02/01 01:24:52;;;;;;;3.17;1.67;;;;;;;6.73;59.28;100906.53;10347101;28;20062;-80
2024/02/01 01:29:54;;;;;;;3.13;1.77;;;;;;;6.72;59.42;100907.41;10330930;28;20124;-82
2024/02/01 01:34:56;;;;;;;5.40;2.10;;;;;;;6.77;59.55;100907.28;10330937;28;20057;-81
2024/02/01 01:40:17;;;;;;;5.10;2.10;;;;;;;6.83;59.58;100902.78;10348619;28;20113;-81
2024/02/01 01:45:19;;;;;;;5.43;1.85;;;;;;;6.88;59.57;100900.88;10297704;28;20062;-81
2024/02/01 01:50:22;;;;;;;4.28;1.98;;;;;;;6.82;60.09;100902.78;10311957;28;20073;-82
2024/02/01 01:55:26;;;;;;;2.80;1.70;;;;;;;6.94;60.13;100898.09;10344611;28;20094;-81
2024/02/01 02:00:28;;;;;;;3.90;2.08;;;;;;;7.00;60.28;100891.84;10341806;28;20097;-81
2024/02/01 02:05:30;;;;;;;4.07;2.30;;;;;;;6.87;60.60;100882.72;10344979;28;20450;-81
2024/02/01 02:10:33;;;;;;;4.75;2.28;;;;;;;6.89;60.69;100879.19;10312926;28;20050;-81
2024/02/01 02:15:36;;;;;;;3.47;1.95;;;;;;;6.88;61.28;100874.00;10330159;28;20548;-81
2024/02/01 02:20:41;;;;;;;4.78;2.20;;;;;;;6.81;61.95;100851.72;10322406;28;20112;-82
2024/02/01 02:25:43;;;;;;;4.30;2.20;;;;;;;6.87;61.75;100841.13;10328524;28;20062;-82
2024/02/01 02:30:45;;;;;;;4.75;2.30;;;;;;;6.74;62.35;100840.63;10311459;28;20074;-82
2024/02/01 02:35:47;;;;;;;6.60;2.50;;;;;;;6.74;62.64;100847.56;10310507;28;20526;-82
2024/02/01 02:40:49;;;;;;;4.82;2.75;;;;;;;6.82;62.21;100843.84;10312555;28;20065;-82
2024/02/01 02:45:51;;;;;;;5.13;2.63;;;;;;;6.77;62.96;100863.09;10326350;28;20050;-82
2024/02/01 02:50:53;;;;;;;5.90;2.97;;;;;;;6.76;62.93;100861.38;10309587;28;20133;-81
2024/02/01 02:55:58;;;;;;;4.82;2.72;;;;;;;6.77;63.26;100856.16;10313538;28;20046;-81
2024/02/01 03:01:00;;;;;;;5.43;2.63;;;;;;;6.75;63.89;100870.09;10298136;28;20054;-82
2024/02/01 03:06:02;;;;;;;6.75;3.00;;;;;;;6.74;64.20;100870.97;10313911;28;20164;-82
2024/02/01 03:11:10;;;;;;;7.78;3.40;;;;;;;6.61;65.49;100867.03;10319360;28;20064;-81
2024/02/01 03:16:37;;;;;;;4.88;2.70;;;;;;;6.47;66.41;100854.41;10340300;28;20133;-81
2024/02/01 03:21:39;;;;;;;5.95;2.83;;;;;;;6.37;66.50;100855.56;10324473;28;20193;-81
2024/02/01 03:26:42;;;;;;;6.40;3.55;;;;;;;6.30;67.28;100856.66;10322508;28;20089;-81
2024/02/01 03:31:45;;;;;;;4.90;2.90;;;;;;;6.31;67.03;100850.53;10321317;28;20058;-81
2024/02/01 03:37:06;;;;;;;5.97;3.28;;;;;;;6.23;68.15;100853.34;10321783;28;20089;-82
2024/02/01 03:42:08;;;;;;;5.43;3.22;;;;;;;6.22;68.03;100850.78;10312659;28;20089;-81
2024/02/01 03:47:10;;;;;;;5.25;2.85;;;;;;;6.18;68.18;100865.59;10292742;28;20602;-82
2024/02/01 03:52:20;;;;;;;5.88;2.85;;;;;;;6.17;68.47;100881.22;10321402;28;20050;-82
2024/02/01 03:57:22;;;;;;;6.73;3.17;;;;;;;6.25;68.23;100879.28;10312419;28;20694;-82
2024/02/01 04:02:25;;;;;;;8.38;3.10;;;;;;;6.32;67.67;100889.50;10313869;28;20077;-82
2024/02/01 04:07:27;;;;;;;7.28;2.75;;;;;;;6.22;68.55;100888.00;10295947;28;20459;-81
2024/02/01 04:13:19;;;;;;;6.00;2.53;;;;;;;6.24;68.85;100886.22;10311691;28;20050;-82
2024/02/01 04:18:21;;;;;;;4.37;2.47;;;;;;;6.16;68.82;100882.97;10310506;28;20050;-82
2024/02/01 04:23:23;;;;;;;5.80;2.60;;;;;;;6.15;69.09;100888.19;10320767;28;20532;-82
2024/02/01 04:28:27;;;;;;;4.38;2.38;;;;;;;6.22;68.33;100890.59;10321424;28;20047;-82
2024/02/01 04:33:29;;;;;;;5.38;2.47;;;;;;;6.31;68.12;100903.38;10310822;28;20062;-82
2024/02/01 04:38:31;;;;;;;3.78;2.30;;;;;;;6.32;68.15;100902.47;10313403;28;20566;-82
2024/02/01 04:43:33;;;;;;;3.92;1.85;;;;;;;6.29;68.59;100886.09;10298341;28;20878;-81
2024/02/01 04:48:36;;;;;;;4.55;2.45;;;;;;;6.29;68.58;100888.69;10278393;28;20042;-82
2024/02/01 04:53:41;;;;;;;3.38;2.00;;;;;;;6.26;68.67;100887.06;10309275;28;20105;-82
2024/02/01 04:58:43;;;;;;;4.95;2.42;;;;;;;6.17;69.39;100892.47;10295435;28;20073;-82
2024/02/01 05:03:45;;;;;;;4.07;2.00;;;;;;;6.13;69.61;100897.75;10339537;28;20056;-82
2024/02/01 05:08:47;;;;;;;6.15;2.45;;;;;;;6.29;68.64;100880.91;10312479;28;20427;-81
2024/02/01 05:13:50;;;;;;;4.32;2.10;;;;;;;6.31;68.70;100872.19;10299254;28;20081;-82
2024/02/01 05:18:52;;;;;;;3.92;2.05;;;;;;;6.33;68.80;100875.59;10303590;28;20105;-82
2024/02/01 05:23:54;;;;;;;2.70;1.60;;;;;;;6.42;68.37;100874.50;10311633;28;20053;-82
2024/02/01 05:28:56;;;;;;;2.40;1.58;;;;;;;6.43;68.54;100875.34;10314460;28;20077;-82
2024/02/01 05:33:58;;;;;;;4.00;2.30;;;;;;;6.32;69.06;100876.50;10326857;28;20046;-82
2024/02/01 05:39:05;;;;;;;4.65;2.25;;;;;;;6.43;68.89;100888.34;10328400;28;20046;-82
2024/02/01 05:44:11;;;;;;;3.38;1.80;;;;;;;6.50;68.72;100882.06;10326125;28;20133;-81
2024/02/01 05:49:18;;;;;;;3.20;1.98;;;;;;;6.51;68.61;100891.59;10303010;28;20088;-81
2024/02/01 05:54:21;;;;;;;3.03;1.60;;;;;;;6.50;69.00;100889.88;10319174;28;20057;-82
2024/02/01 05:59:23;;;;;;;5.18;2.47;;;;;;;6.40;69.51;100897.06;10318124;28;20097;-82
2024/02/01 06:04:25;;;;;;;2.47;1.45;;;;;;;6.38;69.39;100900.59;10316592;28;20061;-82
2024/02/01 06:09:27;;;;;;;4.10;1.75;;;;;;;6.32;69.81;100899.03;10315250;28;20046;-82
2024/02/01 06:14:29;;;;;;;2.42;1.52;;;;;;;6.43;69.51;100911.72;10319365;28;20065;-81
2024/02/01 06:19:31;;;;;;;4.45;1.55;;;;;;;6.34;70.13;100915.44;10300854;28;20089;-82
2024/02/01 06:24:33;;;;;;;3.25;1.67;;;;;;;6.29;70.72;100923.34;10317056;28;20061;-81
2024/02/01 06:29:37;;;;;;;3.30;1.35;;;;;;;6.28;70.78;100926.84;10315465;28;20054;-82
2024/02/01 06:34:39;;;;;;;2.17;1.63;;;;;;;6.45;70.20;100926.38;10313038;28;20070;-84
2024/02/01 06:45:24;;;;;;;3.85;1.67;;;;;;;6.45;70.27;100931.56;10323649;28;20066;-84
2024/02/01 06:55:57;;;;;;;4.17;1.53;;;;;;;6.35;71.33;100958.69;10335251;28;20049;-81
2024/02/01 07:01:13;;;;;;;2.70;1.48;;;;;;;6.54;70.43;100957.31;10315463;28;20097;-80
2024/02/01 07:06:27;;;;;;;2.17;1.40;;;;;;;6.53;70.83;100967.75;10325231;28;20053;-81
2024/02/01 07:11:30;;;;;;;2.35;1.40;;;;;;;6.63;70.31;100969.22;10318645;28;20061;-81
2024/02/01 07:59:10;;;;;;;1.47;1.07;;;;;;;7.17;69.96;101069.09;10334245;28;20508;-78
2024/02/01 08:04:17;;;;;;;1.98;1.17;;;;;;;7.10;70.48;101076.22;10320074;28;20085;-79
2024/02/01 08:09:20;;;;;;;1.88;1.20;;;;;;;7.24;70.21;101088.88;10319716;28;20178;-79
2024/02/01 08:14:22;;;;;;;2.03;1.17;;;;;;;7.30;69.86;101093.03;10307234;28;20521;-79
2024/02/01 08:19:43;;;;;;;1.42;1.00;;;;;;;7.28;70.31;101092.22;10321874;28;20059;-79
2024/02/01 08:24:54;;;;;;;3.60;1.35;;;;;;;7.45;69.74;101096.06;10341371;28;20054;-78
2024/02/01 08:30:12;;;;;;;1.40;1.10;;;;;;;7.61;69.40;101093.88;10317085;28;20065;-78
2024/02/01 08:35:15;;;;;;;1.42;0.98;;;;;;;7.80;69.35;101098.50;10317349;28;20061;-78
2024/02/01 08:40:17;;;;;;;1.95;1.35;;;;;;;7.80;69.02;101111.50;10319690;28;20100;-78
2024/02/01 08:45:20;;;;;;;1.52;1.00;;;;;;;7.81;69.08;101114.97;10307458;28;20050;-78
2024/02/01 08:50:22;;;;;;;1.35;1.08;;;;;;;7.81;68.76;101123.63;10341290;28;20518;-77
2024/02/01 08:55:25;;;;;;;1.95;1.30;;;;;;;7.74;68.96;101118.63;10307787;28;20055;-77
2024/02/01 09:00:34;;;;;;;1.83;1.20;;;;;;;7.80;68.61;101119.31;10293556;28;20464;-77
2024/02/01 09:05:41;;;;;;;5.13;1.60;;;;;;;8.03;68.37;101116.88;10305695;28;20061;-77
2024/02/01 09:10:57;;;;;;;2.63;1.50;;;;;;;8.28;67.76;101137.84;10307370;28;20562;-77
2024/02/01 09:15:59;;;;;;;2.85;1.40;;;;;;;8.46;67.52;101144.25;10325537;28;20535;-77
2024/02/01 09:21:01;;;;;;;2.63;1.63;;;;;;;8.45;67.19;101145.13;10339585;28;20073;-77
2024/02/01 09:26:08;;;;;;;4.40;1.70;;;;;;;8.32;67.44;101162.94;10335554;28;20185;-78
2024/02/01 09:31:20;;;;;;;3.50;2.15;;;;;;;8.44;67.25;101177.34;10319107;28;20054;-77
2024/02/01 09:36:22;;;;;;;4.32;1.58;;;;;;;8.62;66.99;101167.19;10323734;28;20509;-78
2024/02/01 09:41:26;;;;;;;4.38;2.28;;;;;;;8.84;66.56;101185.59;10326617;28;20504;-77
2024/02/01 09:46:34;;;;;;;5.50;2.30;;;;;;;8.91;66.01;101191.47;10284928;28;20086;-77
2024/02/01 09:51:36;;;;;;;5.63;2.83;;;;;;;8.84;65.31;101188.19;10317574;28;20062;-77
2024/02/01 09:56:41;;;;;;;7.45;2.78;;;;;;;8.69;64.04;101196.50;10297526;28;20712;-77
2024/02/01 10:01:44;;;;;;;4.78;2.63;;;;;;;9.18;64.04;101188.75;10298948;28;20065;-77
2024/02/01 10:06:46;;;;;;;4.20;2.33;;;;;;;9.41;62.05;101198.41;10313289;28;20129;-77
2024/02/01 10:11:48;;;;;;;5.40;2.10;;;;;;;9.16;62.51;101213.19;10299211;28;20061;-77
2024/02/01 10:16:50;;;;;;;6.68;2.28;;;;;;;8.91;62.62;101209.72;10321809;28;20057;-77
2024/02/01 10:21:59;;;;;;;4.80;2.15;;;;;;;8.93;62.43;101216.59;10295375;28;20105;-77
2024/02/01 10:27:19;;;;;;;3.20;1.83;;;;;;;8.44;61.32;101224.25;10310343;28;20054;-77
2024/02/01 10:32:27;;;;;;;4.93;2.50;;;;;;;8.48;62.11;101231.94;10310623;28;20058;-77
2024/02/01 10:37:31;;;;;;;5.03;2.22;;;;;;;8.46;61.70;101225.06;10293686;28;20058;-77
2024/02/01 10:42:35;;;;;;;8.63;2.60;;;;;;;8.51;61.17;101217.94;10309461;28;20062;-77
2024/02/01 10:47:46;;;;;;;5.28;2.53;;;;;;;8.38;60.67;101216.63;10293756;28;20141;-77
2024/02/01 10:52:50;;;;;;;3.95;2.33;;;;;;;8.14;60.36;101212.16;10294051;28;20054;-77
2024/02/01 10:57:53;;;;;;;4.80;2.00;;;;;;;8.15;59.40;101211.22;10336754;28;21289;-77
2024/02/01 11:02:57;;;;;;;3.97;2.08;;;;;;;8.40;59.54;101214.81;10329532;28;20085;-77
2024/02/01 11:08:00;;;;;;;4.55;1.98;;;;;;;8.54;57.21;101228.28;10337384;28;20051;-77
2024/02/01 11:13:03;;;;;;;2.40;1.52;;;;;;;8.51;58.13;101234.44;10310995;28;20841;-77
2024/02/01 11:18:10;;;;;;;2.45;1.40;;;;;;;8.20;56.97;101243.25;10327436;28;20184;-76
2024/02/01 11:23:13;;;;;;;2.63;1.40;;;;;;;8.04;56.81;101229.75;10315921;28;20054;-78
2024/02/01 11:28:35;;;;;;;3.03;1.25;;;;;;;7.78;54.97;101256.53;10323902;28;20054;-78
2024/02/01 11:33:37;;;;;;;2.35;1.30;;;;;;;7.93;56.26;101268.28;10291678;28;20065;-78
2024/02/01 11:38:40;;;;;;;2.80;1.00;;;;;;;8.52;56.13;101262.25;10324997;28;20407;-78
2024/02/01 11:50:58;;;;;;;4.47;1.52;;;;;;;8.80;55.03;101252.66;10321736;28;20038;-78
2024/02/01 11:56:01;;;;;;;3.25;1.35;;;;;;;8.77;55.40;101268.38;10299946;28;20062;-78
2024/02/01 12:01:03;;;;;;;3.80;1.40;;;;;;;8.67;55.01;101281.75;10303412;28;20054;-77
2024/02/01 12:06:19;;;;;;;3.53;1.42;;;;;;;8.38;54.48;101273.97;10330097;28;20077;-78
2024/02/01 12:11:24;;;;;;;2.03;1.20;;;;;;;8.56;54.76;101273.41;10302078;28;20423;-79
2024/02/01 12:16:30;;;;;;;2.15;1.20;;;;;;;8.62;53.52;101275.84;10302385;28;20049;-78
2024/02/01 12:21:34;;;;;;;5.15;1.77;;;;;;;8.40;51.04;101269.56;10336865;28;20046;-78
2024/02/01 12:26:39;;;;;;;4.70;1.20;;;;;;;8.67;51.79;101266.09;10309960;28;20050;-78
2024/02/01 12:31:41;;;;;;;3.08;1.10;;;;;;;8.65;51.86;101275.72;10319994;28;20155;-78
2024/02/01 12:36:45;;;;;;;3.55;1.25;;;;;;;8.54;50.75;101277.81;10292539;28;20050;-78
2024/02/01 12:41:57;;;;;;;6.20;1.73;;;;;;;8.61;51.80;101285.41;10294613;28;20107;-78
2024/02/01 12:47:00;;;;;;;5.57;1.60;;;;;;;8.47;51.15;101295.41;10294834;28;20086;-78
2024/02/01 12:52:05;;;;;;;5.35;1.65;;;;;;;8.29;50.75;101279.44;10307223;28;20068;-78
2024/02/01 12:57:08;;;;;;;8.05;1.80;;;;;;;8.29;50.20;101284.66;10294974;28;20395;-78
2024/02/01 13:02:10;;;;;;;6.55;2.25;;;;;;;8.51;51.35;101291.81;10319655;28;20108;-78
2024/02/01 13:07:13;;;;;;;8.02;1.98;;;;;;;8.55;50.37;101279.53;10322580;28;20809;-78
2024/02/01 13:12:24;;;;;;;3.60;1.55;;;;;;;8.52;49.54;101277.88;10310196;28;20086;-78
2024/02/01 13:17:34;;;;;;;6.68;1.70;;;;;;;8.53;49.06;101289.13;10295955;28;20149;-78
2024/02/01 13:22:37;;;;;;;5.80;1.63;;;;;;;8.43;49.87;101287.72;10327709;28;20154;-78
2024/02/01 13:27:39;;;;;;;9.15;2.10;;;;;;;8.28;47.78;101283.78;10309238;28;20054;-78
2024/02/01 13:32:42;;;;;;;2.47;1.27;;;;;;;8.43;49.62;101278.13;10309853;28;20065;-78
2024/02/01 13:37:48;;;;;;;4.32;1.92;;;;;;;8.55;48.28;101285.59;10325808;28;20047;-78
2024/02/01 13:42:52;;;;;;;4.97;1.73;;;;;;;8.54;48.83;101283.91;10315669;28;20062;-78
2024/02/01 13:47:56;;;;;;;7.55;1.98;;;;;;;8.52;49.69;101282.25;10313208;28;20055;-78
2024/02/01 13:53:00;;;;;;;5.75;1.73;;;;;;;8.75;49.54;101285.84;10302531;28;20085;-78
2024/02/01 13:58:02;;;;;;;6.85;3.10;;;;;;;8.66;49.24;101280.06;10278053;28;20054;-78
2024/02/01 14:03:04;;;;;;;3.80;1.52;;;;;;;8.63;49.18;101275.78;10309147;28;20101;-78
2024/02/01 14:08:08;;;;;;;8.60;2.17;;;;;;;8.60;49.41;101278.50;10309918;28;20059;-78
2024/02/01 14:13:11;;;;;;;4.07;1.35;;;;;;;8.59;49.01;101275.91;10308734;28;20144;-78
2024/02/01 14:18:13;;;;;;;8.57;2.13;;;;;;;8.72;48.21;101283.34;10297585;28;20046;-78
2024/02/01 14:23:17;;;;;;;6.45;2.42;;;;;;;8.56;48.82;101299.50;10298251;28;20050;-78
2024/02/01 14:28:19;;;;;;;5.65;1.58;;;;;;;8.60;48.75;101314.16;10311742;28;20447;-78
2024/02/01 14:33:21;;;;;;;9.93;1.73;;;;;;;8.69;49.20;101313.84;10320567;28;20050;-78
2024/02/01 14:38:24;;;;;;;6.90;2.17;;;;;;;8.53;49.28;101310.88;10312272;28;20042;-78
2024/02/01 14:43:26;;;;;;;3.20;1.77;;;;;;;8.54;49.04;101316.94;10311496;28;20475;-78
2024/02/01 14:48:28;;;;;;;3.17;2.28;;;;;;;8.35;48.84;101319.22;10294324;28;21349;-78
2024/02/01 14:53:30;;;;;;;5.82;2.22;;;;;;;8.19;47.31;101335.31;10321692;28;20047;-77
2024/02/01 14:58:32;;;;;;;6.28;1.45;;;;;;;8.10;47.20;101340.78;10296897;28;20054;-79
2024/02/01 15:03:34;;;;;;;3.28;1.58;;;;;;;8.13;48.51;101356.34;10309279;28;20132;-78
2024/02/01 15:08:36;;;;;;;3.63;1.70;;;;;;;8.11;47.99;101363.34;10317976;28;20101;-78
2024/02/01 15:13:39;;;;;;;6.20;1.85;;;;;;;8.05;48.36;101361.75;10308920;28;20072;-79
2024/02/01 15:18:43;;;;;;;4.50;1.98;;;;;;;8.07;48.55;101359.94;10320333;28;20058;-78
2024/02/01 15:23:45;;;;;;;6.55;1.70;;;;;;;7.96;48.73;101369.78;10322835;28;20067;-77
2024/02/01 15:28:48;;;;;;;3.85;1.38;;;;;;;7.81;48.86;101376.25;10311134;28;20120;-77
2024/02/01 15:33:52;;;;;;;17.38;2.08;;;;;;;7.78;49.27;101381.53;10284970;28;20116;-77
2024/02/01 15:38:55;;;;;;;6.65;1.95;;;;;;;7.56;49.35;101374.31;10329319;28;20544;-78
2024/02/01 15:43:57;;;;;;;6.00;2.08;;;;;;;7.44;49.94;101383.28;10312382;28;20138;-78
2024/02/01 15:48:59;;;;;;;4.05;1.40;;;;;;;7.34;49.88;101394.78;10284498;28;20094;-77
2024/02/01 15:54:03;;;;;;;7.43;2.20;;;;;;;7.25;50.02;101400.19;10321295;28;20085;-77
2024/02/01 15:59:06;;;;;;;3.22;1.70;;;;;;;7.09;49.89;101398.84;10337578;28;20704;-77
2024/02/01 16:04:08;;;;;;;8.20;2.10;;;;;;;6.98;50.37;101395.59;10329482;28;20082;-76
2024/02/01 16:09:11;;;;;;;4.25;2.45;;;;;;;6.79;50.56;101404.69;10312358;28;20050;-76
2024/02/01 16:14:21;;;;;;;4.85;1.85;;;;;;;6.68;51.10;101404.91;10328930;28;20709;-76
2024/02/01 16:19:35;;;;;;;3.03;1.90;;;;;;;6.58;51.34;101418.13;10336436;28;21138;-78
2024/02/01 16:24:53;;;;;;;10.20;2.40;;;;;;;6.46;51.19;101415.75;10315345;28;20065;-78
2024/02/01 16:30:24;;;;;;;4.20;1.55;;;;;;;6.30;51.50;101426.47;10315051;28;20054;-78
2024/02/01 16:35:48;;;;;;;4.20;2.37;;;;;;;6.14;51.62;101431.94;10305140;28;20062;-78
2024/02/01 16:40:51;;;;;;;2.85;1.63;;;;;;;6.06;52.23;101442.44;10316612;28;20038;-78
2024/02/01 16:45:54;;;;;;;5.28;2.00;;;;;;;5.98;52.60;101439.09;10309087;28;20058;-78
2024/02/01 16:50:56;;;;;;;7.03;2.35;;;;;;;5.80;52.98;101443.78;10310487;28;20463;-77
2024/02/01 16:55:58;;;;;;;5.15;2.20;;;;;;;5.57;53.66;101457.13;10316337;28;20120;-77
2024/02/01 17:01:02;;;;;;;6.85;2.40;;;;;;;5.38;54.41;101466.03;10315315;28;20078;-82
2024/02/01 17:06:05;;;;;;;4.78;2.53;;;;;;;5.30;55.24;101473.06;10322544;28;20061;-81
2024/02/01 17:11:09;;;;;;;10.15;3.05;;;;;;;5.15;55.05;101471.53;10322131;28;20061;-81
2024/02/01 17:16:59;;;;;;;5.90;2.20;;;;;;;5.17;55.01;101484.47;10341345;28;20053;-81
2024/02/01 17:22:26;;;;;;;3.78;1.80;;;;;;;5.17;55.40;101481.88;10268518;28;20066;-82
2024/02/01 17:27:34;;;;;;;5.20;1.70;;;;;;;5.04;56.11;101477.75;10318769;28;20057;-81
2024/02/01 17:32:37;;;;;;;6.05;2.03;;;;;;;5.04;55.41;101477.75;10341821;28;20041;-81
2024/02/01 17:37:42;;;;;;;8.82;2.00;;;;;;;5.05;55.55;101492.41;10349478;28;20050;-81
2024/02/01 17:42:49;;;;;;;5.80;1.85;;;;;;;5.00;55.96;101494.22;10333909;28;20050;-81
2024/02/01 17:48:09;;;;;;;7.50;2.35;;;;;;;4.94;56.20;101483.94;10352514;28;20089;-81
2024/02/01 17:53:12;;;;;;;5.63;2.22;;;;;;;4.84;56.56;101472.78;10348076;28;20053;-81
2024/02/01 17:58:45;;;;;;;5.63;1.60;;;;;;;4.57;57.26;101478.31;10331577;28;20054;-81
2024/02/01 18:03:55;;;;;;;4.20;1.35;;;;;;;4.38;57.62;101488.00;10317609;28;20069;-80
2024/02/01 18:08:58;;;;;;;4.45;2.55;;;;;;;4.31;57.33;101483.72;10300201;28;20813;-81
2024/02/01 18:14:03;;;;;;;3.00;1.80;;;;;;;4.16;57.94;101490.78;10294244;28;20526;-81
2024/02/01 18:19:18;;;;;;;7.45;2.92;;;;;;;4.11;58.34;101490.81;10329926;28;20047;-80
2024/02/01 18:24:29;;;;;;;3.70;2.40;;;;;;;4.06;58.44;101484.84;10325232;28;20447;-80
2024/02/01 18:29:53;;;;;;;9.90;2.22;;;;;;;4.00;58.95;101484.03;10317389;28;20061;-80
2024/02/01 18:35:01;;;;;;;9.30;4.15;;;;;;;3.98;58.78;101483.19;10308751;28;20058;-80
2024/02/01 18:40:11;;;;;;;5.55;2.30;;;;;;;3.92;58.99;101480.66;10325635;28;20042;-80
2024/02/01 18:45:40;;;;;;;4.30;2.25;;;;;;;3.86;59.43;101478.97;10315969;28;20125;-80
2024/02/01 18:50:42;;;;;;;9.00;3.88;;;;;;;3.94;59.07;101494.44;10295720;28;20058;-80
2024/02/01 18:55:45;;;;;;;6.28;2.60;;;;;;;4.01;59.06;101488.31;10324562;28;20057;-80
2024/02/01 19:00:48;;;;;;;8.07;3.13;;;;;;;3.96;59.19;101493.56;10298235;28;20454;-80
2024/02/01 19:05:50;;;;;;;8.07;3.00;;;;;;;3.88;59.06;101496.19;10314408;28;20274;-81
2024/02/01 19:10:55;;;;;;;7.82;2.70;;;;;;;3.65;59.22;101511.00;10333355;28;20597;-80
2024/02/01 19:15:57;;;;;;;9.50;2.88;;;;;;;3.63;59.43;101525.66;10313988;28;20062;-81
2024/02/01 19:20:59;;;;;;;6.47;2.53;;;;;;;3.50;59.59;101543.84;10304271;28;20053;-81
2024/02/01 19:26:03;;;;;;;6.80;2.67;;;;;;;3.44;59.58;101543.88;10324225;28;20503;-81
2024/02/01 19:31:05;;;;;;;6.72;2.83;;;;;;;3.50;59.76;101551.59;10323165;28;20049;-81
2024/02/01 19:36:33;;;;;;;7.22;2.42;;;;;;;3.54;59.98;101555.88;10305791;28;20065;-81
2024/02/01 19:41:39;;;;;;;6.13;2.50;;;;;;;3.46;59.85;101552.47;10323571;28;20051;-82
2024/02/01 19:46:42;;;;;;;6.00;2.67;;;;;;;3.32;59.60;101554.28;10315765;28;20066;-83
2024/02/01 19:51:44;;;;;;;10.15;3.08;;;;;;;3.12;59.99;101548.31;10315962;28;20054;-81
2024/02/01 19:56:47;;;;;;;15.27;3.03;;;;;;;2.91;60.23;101542.38;10308356;28;20062;-81
2024/02/01 20:01:50;;;;;;;11.43;2.30;;;;;;;2.80;60.52;101545.84;10312205;28;20514;-81
2024/02/01 20:06:52;;;;;;;5.70;2.50;;;;;;;2.84;61.19;101550.16;10313780;28;20085;-82
2024/02/01 20:11:54;;;;;;;9.65;2.30;;;;;;;2.88;60.89;101546.69;10315975;28;20084;-82
2024/02/01 20:16:56;;;;;;;4.30;2.45;;;;;;;2.93;60.66;101545.81;10295531;28;20428;-83
2024/02/01 20:22:04;;;;;;;9.00;2.30;;;;;;;3.01;60.64;101538.88;10318541;28;21017;-82
2024/02/01 20:27:13;;;;;;;10.50;3.55;;;;;;;2.95;61.14;101538.91;10315238;28;20054;-82
2024/02/01 20:32:19;;;;;;;7.20;2.58;;;;;;;2.79;60.59;101539.81;10294508;28;20122;-81
2024/02/01 20:37:21;;;;;;;11.93;2.78;;;;;;;2.53;61.05;101558.81;10312890;28;20065;-81
2024/02/01 20:42:24;;;;;;;5.75;2.85;;;;;;;2.44;61.51;101569.16;10321887;28;20373;-81
2024/02/01 20:47:31;;;;;;;8.55;3.35;;;;;;;2.38;61.42;101570.00;10314986;28;20511;-81
2024/02/01 20:52:34;;;;;;;3.70;1.98;;;;;;;2.21;61.50;101567.44;10296350;28;20074;-81
2024/02/01 20:57:40;;;;;;;4.82;2.38;;;;;;;2.14;61.87;101570.00;10310864;28;20543;-81
2024/02/01 21:02:42;;;;;;;4.43;2.20;;;;;;;2.20;61.93;101557.09;10310937;28;20069;-81
2024/02/01 21:07:45;;;;;;;11.30;2.63;;;;;;;2.30;62.02;101556.25;10324226;28;20145;-81
2024/02/01 21:13:00;;;;;;;6.18;2.42;;;;;;;2.32;62.11;101558.84;10318321;28;20513;-80
2024/02/01 21:18:03;;;;;;;8.35;3.38;;;;;;;2.33;61.99;101565.72;10319684;28;20062;-81
2024/02/01 21:23:15;;;;;;;6.47;2.20;;;;;;;2.34;62.27;101575.19;10300249;28;20050;-81
2024/02/01 21:28:18;;;;;;;6.38;2.47;;;;;;;2.32;61.84;101564.00;10318241;28;20194;-81
2024/02/01 21:33:20;;;;;;;6.32;2.42;;;;;;;2.17;61.90;101563.13;10316581;28;20100;-81
2024/02/01 21:38:25;;;;;;;10.45;2.45;;;;;;;2.12;62.13;101571.72;10326507;28;20142;-81
2024/02/01 21:43:27;;;;;;;5.30;2.65;;;;;;;2.12;62.17;101575.19;10328108;28;20141;-81
2024/02/01 21:48:29;;;;;;;4.80;2.13;;;;;;;2.11;62.19;101564.88;10301999;28;20158;-81
2024/02/01 21:53:31;;;;;;;5.03;2.22;;;;;;;2.00;62.29;101569.16;10320844;28;20419;-81
2024/02/01 21:58:33;;;;;;;6.07;2.30;;;;;;;2.04;62.54;101571.72;10329365;28;20058;-81
2024/02/01 22:03:35;;;;;;;4.20;1.88;;;;;;;2.10;62.48;101591.50;10311332;28;20137;-81
2024/02/01 22:08:37;;;;;;;6.07;2.22;;;;;;;2.10;62.44;101596.69;10325301;28;20050;-81
2024/02/01 22:13:42;;;;;;;5.20;2.15;;;;;;;2.02;62.35;101598.38;10325967;28;20054;-81
2024/02/01 22:18:44;;;;;;;5.43;2.33;;;;;;;1.85;62.67;101585.44;10343257;28;20058;-81
2024/02/01 22:23:46;;;;;;;3.55;1.95;;;;;;;1.79;62.55;101600.06;10341086;28;20050;-80
2024/02/01 22:28:48;;;;;;;5.75;2.50;;;;;;;1.66;62.57;101601.75;10309830;28;20046;-80
2024/02/01 22:33:50;;;;;;;8.68;2.05;;;;;;;1.67;62.88;101608.63;10310246;28;20061;-81
2024/02/01 22:38:52;;;;;;;7.68;2.00;;;;;;;1.60;62.95;101600.88;10339429;28;20054;-80
2024/02/01 22:43:55;;;;;;;4.22;2.22;;;;;;;1.54;62.94;101603.44;10341224;28;20148;-81
2024/02/01 22:48:57;;;;;;;9.25;2.28;;;;;;;1.59;63.43;101606.88;10324951;28;20050;-80
2024/02/01 22:53:59;;;;;;;5.45;1.60;;;;;;;1.67;63.18;101603.47;10319175;28;20058;-80
2024/02/01 22:59:02;;;;;;;3.50;1.67;;;;;;;1.63;63.10;101593.13;10322240;28;20049;-80
2024/02/01 23:04:05;;;;;;;8.30;2.30;;;;;;;1.63;63.23;101596.59;10295498;28;20050;-80
2024/02/01 23:09:08;;;;;;;5.88;2.50;;;;;;;1.61;62.98;101589.69;10322832;28;20141;-80
2024/02/01 23:14:10;;;;;;;5.38;2.22;;;;;;;1.51;63.09;101567.31;10297781;28;20141;-80
2024/02/01 23:19:12;;;;;;;4.57;2.40;;;;;;;1.63;63.16;101550.16;10314706;28;20046;-81
2024/02/01 23:24:14;;;;;;;3.45;2.22;;;;;;;1.77;63.26;101532.13;10322329;28;20392;-82
2024/02/01 23:29:16;;;;;;;5.07;2.20;;;;;;;1.81;63.08;101539.88;10322154;28;20056;-81
2024/02/01 23:34:18;;;;;;;4.28;1.83;;;;;;;2.03;63.02;101523.56;10312624;28;20054;-81
2024/02/01 23:39:21;;;;;;;7.55;2.33;;;;;;;2.27;62.92;101503.78;10320800;28;20054;-82
2024/02/01 23:44:23;;;;;;;10.32;2.75;;;;;;;2.33;62.95;101522.69;10339453;28;20086;-82
2024/02/01 23:49:26;;;;;;;2.55;1.60;;;;;;;2.40;62.68;101536.47;10335361;28;20065;-81
2024/02/01 23:54:28;;;;;;;5.05;2.28;;;;;;;2.57;62.64;101524.38;10365634;28;20068;-82
2024/02/01 23:59:31;;;;;;;2.75;1.42;;;;;;;2.51;62.24;101530.41;10371480;28;20102;-82
